Airport View

Enter AWOS ICAO identifier for current METAR.

ex. KFNL

KLNL 250150Z AUTO 19005KT 10SM OVC048 24/13 A2987 RMK AO2 T02430132

25 May 2020 01:51

Frequency: 119.525

Phone: 715-547-6313

Other Area AWOS: KEGV - KARV - KD25 - KRHI

TAF AMD KRHI 250119Z 2501/2524 20005KT P6SM SCT250 FM251000 17004KT 1 1/2SM BR BKN002 FM251200 18004KT P6SM BKN035 FM251600 20008G15KT P6SM -SHRA BKN035 TEMPO 2519/2523 2SM TSRA OVC025CB